Time;durP1;ratioP1;P1;durP2;ratioP2;P2;SDS_P1;SDS_P2;PMS_P1;PMS_P2;Temp;Humidity;BMP_temperature;BMP_pressure;BME280_temperature;BME280_humidity;BME280_pressure;Samples;Min_cycle;Max_cycle;Signal;HPM_P1;HPM_P2
2022/09/22 00:01:37;;;;;;;1.77;1.15;;;10.30;99.90;;;9.60;100.00;101802.97;5099736;23;20009;-74
2022/09/22 00:03:47;;;;;;;2.70;1.13;;;10.30;99.90;;;9.63;100.00;101811.47;5099190;23;20453;-74
2022/09/22 00:05:48;;;;;;;2.15;0.88;;;10.30;99.90;;;9.61;100.00;101818.66;5098018;23;20006;-74
2022/09/22 00:07:49;;;;;;;2.47;0.93;;;10.30;99.90;;;9.59;100.00;101811.84;5100013;23;20371;-73
2022/09/22 00:09:50;;;;;;;2.97;1.20;;;10.30;99.90;;;9.60;100.00;101818.78;5098565;23;20081;-74
2022/09/22 00:11:52;;;;;;;1.58;0.85;;;10.30;99.90;;;9.57;100.00;101803.22;5099658;23;20002;-74
2022/09/22 00:14:01;;;;;;;3.00;1.35;;;10.30;99.90;;;9.62;100.00;101799.25;5098366;23;20005;-74
2022/09/22 00:16:06;;;;;;;2.13;1.00;;;10.30;99.90;;;9.63;100.00;101808.84;5099717;23;20430;-74
2022/09/22 00:18:07;;;;;;;2.03;0.85;;;10.30;99.90;;;9.65;100.00;101796.38;5073597;23;20009;-74
2022/09/22 00:20:10;;;;;;;3.45;1.45;;;10.30;99.90;;;9.59;100.00;101806.59;5099770;23;20009;-74
2022/09/22 00:22:11;;;;;;;2.85;0.77;;;10.30;99.90;;;9.58;100.00;101805.75;5098286;23;20477;-73
2022/09/22 00:24:12;;;;;;;2.25;1.25;;;10.30;99.90;;;9.51;100.00;101812.44;5099521;23;20005;-74
2022/09/22 00:26:19;;;;;;;2.08;0.90;;;10.20;99.90;;;9.47;100.00;101818.09;5099519;23;20311;-74
2022/09/22 00:28:20;;;;;;;1.95;0.73;;;10.20;99.90;;;9.41;100.00;101819.41;5099813;23;20016;-74
2022/09/22 00:30:21;;;;;;;1.77;0.93;;;10.10;99.90;;;9.33;100.00;101811.28;5099813;23;20002;-73
2022/09/22 00:32:22;;;;;;;1.67;0.80;;;10.10;99.90;;;9.30;100.00;101814.16;5098064;23;20031;-74
2022/09/22 00:34:25;;;;;;;2.85;1.25;;;10.00;99.90;;;9.27;100.00;101812.59;5097304;23;20029;-74
2022/09/22 00:36:27;;;;;;;2.30;1.00;;;10.00;99.90;;;9.28;100.00;101808.19;5122491;23;20342;-74
2022/09/22 00:38:29;;;;;;;2.22;1.33;;;10.00;99.90;;;9.31;100.00;101808.78;5073571;23;20402;-74
2022/09/22 00:40:31;;;;;;;3.33;1.30;;;10.00;99.90;;;9.38;100.00;101811.75;5098020;23;20044;-74
2022/09/22 00:42:32;;;;;;;3.05;1.45;;;10.00;99.90;;;9.39;100.00;101800.25;5099136;23;20052;-74
2022/09/22 00:44:41;;;;;;;3.45;1.38;;;10.10;99.90;;;9.44;100.00;101792.81;5097905;23;20200;-74
2022/09/22 00:46:46;;;;;;;3.83;1.40;;;10.10;99.90;;;9.50;100.00;101797.59;5097861;23;20064;-74
2022/09/22 00:48:56;;;;;;;2.40;1.50;;;10.10;99.90;;;9.54;100.00;101796.41;5099104;23;20009;-73
2022/09/22 00:51:01;;;;;;;2.17;1.25;;;10.20;99.90;;;9.54;100.00;101783.22;5099554;23;20002;-74
2022/09/22 00:53:11;;;;;;;4.03;1.40;;;10.20;99.90;;;9.56;100.00;101781.31;5098067;23;20005;-74
2022/09/22 00:55:29;;;;;;;3.08;1.27;;;10.20;99.90;;;9.59;100.00;101786.31;5098374;23;20006;-74
2022/09/22 00:57:35;;;;;;;2.10;1.27;;;10.20;99.90;;;9.55;100.00;101794.59;5098135;23;20460;-74
2022/09/22 00:59:37;;;;;;;2.22;1.30;;;10.20;99.90;;;9.42;100.00;101789.47;5099428;23;20061;-74
2022/09/22 01:01:39;;;;;;;2.03;1.40;;;10.20;99.90;;;9.30;100.00;101786.03;5098498;23;20005;-74
2022/09/22 01:03:41;;;;;;;2.78;1.10;;;10.10;99.90;;;9.16;100.00;101764.41;5097438;23;20011;-74
2022/09/22 01:05:46;;;;;;;1.65;1.05;;;10.00;99.90;;;9.19;100.00;101795.75;5097827;23;20012;-74
2022/09/22 01:07:47;;;;;;;2.25;0.93;;;10.00;99.90;;;9.18;100.00;101796.69;5097851;23;20001;-74
2022/09/22 01:09:48;;;;;;;1.95;1.10;;;9.90;99.90;;;9.15;100.00;101791.66;5073674;23;20009;-74
2022/09/22 01:11:49;;;;;;;2.05;1.10;;;9.90;99.90;;;9.13;100.00;101793.59;5098053;23;20010;-74
2022/09/22 01:14:19;;;;;;;2.67;1.63;;;9.90;99.90;;;9.15;100.00;101796.94;5097812;23;20492;-73
2022/09/22 01:16:56;;;;;;;5.38;1.50;;;9.80;99.90;;;9.13;100.00;101793.59;5073473;23;20029;-73
2022/09/22 01:19:40;;;;;;;2.70;1.75;;;9.80;99.90;;;9.17;100.00;101795.84;5097574;23;20049;-74
2022/09/22 01:22:02;;;;;;;3.85;1.50;;;9.90;99.90;;;9.18;100.00;101791.44;5099270;23;20385;-74
2022/09/22 01:25:01;;;;;;;5.15;2.55;;;9.90;99.90;;;9.16;100.00;101793.34;5099144;23;20016;-74
2022/09/22 01:27:26;;;;;;;2.25;1.00;;;9.90;99.90;;;9.13;100.00;101793.59;5024572;23;20396;-74
2022/09/22 01:29:36;;;;;;;4.50;1.17;;;9.80;99.90;;;9.01;100.00;101792.78;5088489;23;20427;-74
2022/09/22 01:32:21;;;;;;;1.98;1.23;;;9.80;99.90;;;8.93;100.00;101795.16;5097251;23;20007;-74
2022/09/22 01:34:35;;;;;;;3.30;1.85;;;9.70;99.90;;;8.84;100.00;101798.53;5076016;23;20118;-74
2022/09/22 01:36:39;;;;;;;3.15;1.45;;;9.60;99.90;;;8.77;100.00;101798.16;5121143;23;20029;-74
2022/09/22 01:38:57;;;;;;;2.00;1.48;;;9.60;99.90;;;8.73;100.00;101799.34;5097499;23;20104;-74
2022/09/22 01:41:27;;;;;;;2.30;1.45;;;9.50;99.90;;;8.71;100.00;101793.38;5121905;23;20015;-74
2022/09/22 01:43:53;;;;;;;3.65;1.30;;;9.50;99.90;;;8.71;100.00;101793.38;5098811;23;20013;-73
2022/09/22 01:45:54;;;;;;;2.97;1.50;;;9.40;99.90;;;8.64;100.00;101778.16;5099173;23;20009;-74
2022/09/22 01:48:04;;;;;;;2.13;1.23;;;9.40;99.90;;;8.68;100.00;101788.34;5097546;23;20005;-74
2022/09/22 01:50:11;;;;;;;3.40;1.65;;;9.40;99.90;;;8.64;100.00;101786.06;5098410;23;20072;-74
2022/09/22 01:52:22;;;;;;;2.53;1.63;;;9.40;99.90;;;8.63;100.00;101784.41;5073203;23;20002;-74
2022/09/22 01:54:50;;;;;;;3.47;1.70;;;9.40;99.90;;;8.61;100.00;101779.22;5073350;23;20014;-74
2022/09/22 01:57:02;;;;;;;2.55;1.50;;;9.40;99.90;;;8.59;100.00;101775.91;5097120;23;20010;-74
2022/09/22 01:59:06;;;;;;;3.42;2.35;;;9.40;99.90;;;8.52;100.00;101752.81;5097772;23;20032;-74
2022/09/22 02:01:13;;;;;;;5.32;1.83;;;9.40;99.90;;;8.68;100.00;101767.31;5097446;23;20018;-74
2022/09/22 02:03:23;;;;;;;3.15;1.70;;;9.40;99.90;;;8.65;100.00;101762.28;5097007;23;20009;-74
2022/09/22 02:05:39;;;;;;;5.30;1.85;;;9.40;99.90;;;8.65;100.00;101782.47;5098803;23;20437;-74
2022/09/22 02:07:46;;;;;;;1.83;1.20;;;9.40;99.90;;;8.52;100.00;101763.31;5097454;23;20006;-73
2022/09/22 02:09:48;;;;;;;2.13;1.42;;;9.40;99.90;;;8.53;100.00;101778.16;5073512;23;20002;-74
2022/09/22 02:11:49;;;;;;;3.40;1.27;;;9.30;99.90;;;8.49;100.00;101768.81;5072628;23;20009;-73
2022/09/22 02:13:51;;;;;;;3.83;1.58;;;9.30;99.90;;;8.44;100.00;101769.19;5072856;23;20014;-74
2022/09/22 02:16:01;;;;;;;3.25;1.77;;;9.20;99.90;;;8.52;100.00;101766.78;5097277;23;20060;-74
2022/09/22 02:18:11;;;;;;;3.80;1.92;;;9.30;99.90;;;8.54;100.00;101770.13;5097042;23;20480;-74
2022/09/22 02:20:12;;;;;;;2.65;1.60;;;9.30;99.90;;;8.57;100.00;101766.47;5097394;23;20005;-74
2022/09/22 02:22:13;;;;;;;3.25;1.77;;;9.30;99.90;;;8.56;100.00;101775.28;5097293;23;20320;-73
2022/09/22 02:24:40;;;;;;;2.60;1.60;;;9.30;99.90;;;8.45;100.00;101760.34;5098604;23;20010;-74
2022/09/22 02:26:41;;;;;;;2.83;1.27;;;9.20;99.90;;;8.42;100.00;101765.84;5097665;23;20052;-74
2022/09/22 02:28:44;;;;;;;3.38;1.80;;;9.20;99.90;;;8.39;100.00;101760.81;5097235;23;20006;-74
2022/09/22 02:30:48;;;;;;;2.65;1.67;;;9.20;99.90;;;8.36;100.00;101758.41;5097186;23;20029;-74
2022/09/22 02:32:52;;;;;;;2.10;1.30;;;9.10;99.90;;;8.31;100.00;101760.53;5096759;23;20010;-74
2022/09/22 02:34:54;;;;;;;2.40;1.73;;;9.10;99.90;;;8.26;100.00;101754.78;5072712;23;20041;-74
2022/09/22 02:37:26;;;;;;;2.92;1.73;;;9.10;99.90;;;8.29;100.00;101760.69;5097034;23;20010;-74
2022/09/22 02:40:02;;;;;;;2.67;1.80;;;9.00;99.90;;;8.23;100.00;101753.22;5096899;23;20020;-74
2022/09/22 02:42:31;;;;;;;2.25;1.60;;;9.00;99.90;;;8.19;100.00;101740.41;5097045;23;20059;-74
2022/09/22 02:45:07;;;;;;;4.22;2.10;;;9.00;99.90;;;8.19;100.00;101753.56;5097805;23;20065;-74
2022/09/22 02:47:15;;;;;;;3.00;2.20;;;9.00;99.90;;;8.12;100.00;101747.09;5094289;23;20006;-74
2022/09/22 02:49:18;;;;;;;4.18;1.90;;;9.00;99.90;;;8.09;100.00;101736.81;5072383;23;20029;-74
2022/09/22 02:51:19;;;;;;;2.72;1.77;;;8.90;99.90;;;8.09;100.00;101742.91;5097049;23;20005;-74
2022/09/22 02:53:20;;;;;;;4.88;2.10;;;8.90;99.90;;;8.09;100.00;101747.34;5072310;23;20037;-74
2022/09/22 02:55:21;;;;;;;3.22;1.92;;;8.90;99.90;;;7.99;100.00;101730.56;5098542;23;20085;-73
2022/09/22 02:57:22;;;;;;;3.08;1.80;;;8.80;99.90;;;8.05;100.00;101735.38;5098459;23;20009;-74
2022/09/22 02:59:23;;;;;;;2.78;1.80;;;8.80;99.90;;;8.03;100.00;101739.91;5097159;23;20010;-74
2022/09/22 03:01:24;;;;;;;2.85;1.70;;;8.80;99.90;;;7.95;100.00;101726.50;5096679;23;20088;-74
2022/09/22 03:03:25;;;;;;;5.15;1.67;;;8.80;99.90;;;7.96;100.00;101726.38;5098131;23;20037;-74
2022/09/22 03:05:25;;;;;;;2.88;1.63;;;8.80;99.90;;;7.94;100.00;101728.31;5097095;23;20010;-73
2022/09/22 03:07:26;;;;;;;4.32;2.30;;;8.70;99.90;;;7.97;100.00;101735.13;5098725;23;20008;-74
2022/09/22 03:09:27;;;;;;;3.00;2.13;;;8.80;99.90;;;7.96;100.00;101741.31;5097044;23;20005;-74
2022/09/22 03:11:28;;;;;;;3.35;1.98;;;8.70;99.90;;;7.91;100.00;101732.94;5121583;23;20001;-73
2022/09/22 03:13:29;;;;;;;6.18;2.65;;;8.70;99.90;;;7.93;100.00;101734.50;5096916;23;20378;-74
2022/09/22 03:15:30;;;;;;;4.00;2.28;;;8.70;99.90;;;7.90;100.00;101726.00;5096750;23;20013;-74
2022/09/22 03:17:33;;;;;;;3.42;2.17;;;8.70;99.90;;;7.94;100.00;101730.09;5121596;23;20005;-74
2022/09/22 03:19:33;;;;;;;4.40;2.30;;;8.70;99.90;;;7.93;100.00;101726.63;5096838;23;20005;-74
2022/09/22 03:21:34;;;;;;;2.85;2.20;;;8.70;99.90;;;7.98;100.00;101731.50;5096856;23;20044;-74
2022/09/22 03:23:35;;;;;;;3.90;2.17;;;8.70;99.90;;;7.96;100.00;101728.19;5098267;23;20009;-74
2022/09/22 03:25:36;;;;;;;4.25;2.17;;;8.70;99.90;;;7.97;100.00;101729.88;5097109;23;20469;-73
2022/09/22 03:27:38;;;;;;;3.00;1.83;;;8.70;99.90;;;7.92;100.00;101727.56;5098357;23;20490;-74
2022/09/22 03:29:39;;;;;;;4.88;2.42;;;8.70;99.90;;;7.87;100.00;101724.44;5096879;23;20370;-74
2022/09/22 03:31:39;;;;;;;3.65;2.30;;;8.70;99.90;;;7.91;100.00;101722.44;5096729;23;20001;-74
2022/09/22 03:33:40;;;;;;;4.00;1.95;;;8.60;99.90;;;7.86;100.00;101719.28;5096603;23;20012;-74
2022/09/22 03:35:41;;;;;;;4.00;1.83;;;8.60;99.90;;;7.85;100.00;101717.66;5098177;23;20017;-74
2022/09/22 03:37:42;;;;;;;5.10;2.40;;;8.60;99.90;;;7.89;100.00;101719.06;5072419;23;20006;-74
2022/09/22 03:39:43;;;;;;;4.18;2.70;;;8.60;99.90;;;7.84;100.00;101715.97;5098295;23;20017;-74
2022/09/22 03:41:45;;;;;;;2.95;1.90;;;8.60;99.90;;;7.72;100.00;101697.53;5048357;23;20041;-74
2022/09/22 03:43:46;;;;;;;4.50;2.08;;;8.60;99.90;;;7.87;100.00;101723.59;5072389;23;20438;-74
2022/09/22 03:45:47;;;;;;;3.83;2.20;;;8.60;99.90;;;7.71;100.00;101695.84;5098210;23;20001;-74
2022/09/22 03:47:48;;;;;;;6.63;2.15;;;8.60;99.90;;;7.80;100.00;101713.56;5072029;23;20002;-74
2022/09/22 03:49:49;;;;;;;3.67;2.10;;;8.60;99.90;;;7.75;100.00;101707.81;5097071;23;20009;-74
2022/09/22 03:51:50;;;;;;;4.63;2.28;;;8.60;99.90;;;7.72;100.00;101707.22;5072607;23;20009;-74
2022/09/22 03:53:50;;;;;;;3.83;1.90;;;8.50;99.90;;;7.61;100.00;101700.13;5096753;23;20381;-74
2022/09/22 03:55:51;;;;;;;3.33;1.90;;;8.50;99.90;;;7.58;100.00;101703.00;5098354;23;20009;-74
2022/09/22 03:57:52;;;;;;;3.95;2.17;;;8.50;99.90;;;7.64;100.00;101723.53;5098103;23;20010;-74
2022/09/22 03:59:53;;;;;;;8.82;2.30;;;8.40;99.90;;;7.51;100.00;101704.38;5072276;23;20014;-74
2022/09/22 04:01:54;;;;;;;6.13;2.80;;;8.40;99.90;;;7.67;100.00;101725.94;5072361;23;20083;-73
2022/09/22 04:03:55;;;;;;;5.38;2.60;;;8.40;99.90;;;7.64;100.00;101720.91;5097726;23;20006;-73
2022/09/22 04:05:56;;;;;;;3.13;2.35;;;8.40;99.90;;;7.68;100.00;101727.59;5072222;23;20006;-74
2022/09/22 04:07:57;;;;;;;3.90;2.80;;;8.40;99.90;;;7.69;100.00;101724.03;5098110;23;20005;-74
2022/09/22 04:09:58;;;;;;;3.88;2.00;;;8.40;99.90;;;7.68;100.00;101727.59;5098103;23;20006;-73
2022/09/22 04:11:59;;;;;;;3.15;1.98;;;8.40;99.90;;;7.57;100.00;101708.34;5098107;23;20005;-74
2022/09/22 04:14:01;;;;;;;2.63;2.00;;;8.40;99.90;;;7.61;100.00;101722.94;5096580;23;20009;-73
2022/09/22 04:16:04;;;;;;;4.10;2.50;;;8.40;99.90;;;7.60;100.00;101714.22;5096626;23;20013;-74
2022/09/22 04:18:05;;;;;;;3.60;2.28;;;8.40;99.90;;;7.62;100.00;101722.81;5073425;23;20021;-74
2022/09/22 04:20:10;;;;;;;3.65;2.33;;;8.40;99.90;;;7.61;100.00;101717.69;5073868;23;20312;-74
2022/09/22 04:22:11;;;;;;;2.65;2.05;;;8.40;99.90;;;7.48;100.00;101701.97;5099979;23;20007;-74
2022/09/22 04:24:12;;;;;;;2.40;1.73;;;8.40;99.90;;;7.55;100.00;101724.22;5073734;23;20013;-74
2022/09/22 04:26:13;;;;;;;2.85;2.13;;;8.30;99.90;;;7.56;100.00;101720.63;5049372;23;20007;-74
2022/09/22 04:28:14;;;;;;;2.95;2.30;;;8.30;99.90;;;7.46;100.00;101709.16;5098364;23;20013;-73
2022/09/22 04:30:15;;;;;;;3.58;2.03;;;8.30;99.90;;;7.55;100.00;101720.75;5098124;23;20005;-73
2022/09/22 04:32:17;;;;;;;5.30;2.60;;;8.30;99.90;;;7.52;100.00;101721.81;5073657;23;20037;-73
2022/09/22 04:34:18;;;;;;;4.05;2.85;;;8.30;99.90;;;7.52;100.00;101721.81;5078922;23;20013;-74
2022/09/22 04:36:19;;;;;;;4.72;3.20;;;8.30;99.90;;;7.49;100.00;101719.41;5099578;23;20350;-74
2022/09/22 04:38:20;;;;;;;2.63;1.95;;;8.30;99.90;;;7.50;100.00;101722.84;5097433;23;20017;-74
2022/09/22 04:40:22;;;;;;;5.68;2.38;;;8.30;99.90;;;7.51;100.00;101730.63;5098273;23;20010;-74
2022/09/22 04:42:23;;;;;;;2.78;1.88;;;8.30;99.90;;;7.49;100.00;101732.53;5073397;23;20331;-74
2022/09/22 04:44:24;;;;;;;3.40;2.08;;;8.30;99.90;;;7.45;100.00;101736.34;5097674;23;20052;-74
2022/09/22 04:46:26;;;;;;;4.30;2.10;;;8.30;99.90;;;7.43;100.00;101738.25;5099388;23;20002;-74
2022/09/22 04:48:27;;;;;;;3.90;2.50;;;8.20;99.90;;;7.36;100.00;101726.50;5099082;23;20002;-74
2022/09/22 04:50:28;;;;;;;3.30;2.30;;;8.20;99.90;;;7.38;100.00;101734.28;5097811;23;20072;-74
2022/09/22 04:52:28;;;;;;;4.78;2.55;;;8.20;99.90;;;7.38;100.00;101724.59;5097798;23;20009;-74
2022/09/22 04:54:30;;;;;;;4.45;2.72;;;8.10;99.90;;;7.31;100.00;101723.38;5099236;23;20338;-74
2022/09/22 04:56:31;;;;;;;3.08;2.30;;;8.10;99.90;;;7.39;100.00;101728.91;5073405;23;20006;-74
2022/09/22 04:58:32;;;;;;;3.13;1.80;;;8.10;99.90;;;7.30;100.00;101716.44;5097709;23;20009;-74
2022/09/22 05:00:33;;;;;;;3.92;2.38;;;8.10;99.90;;;7.13;100.00;101688.81;5099313;23;20006;-74
2022/09/22 05:02:34;;;;;;;6.40;3.00;;;8.10;99.90;;;7.32;100.00;101727.66;5097718;23;20192;-74
2022/09/22 05:04:35;;;;;;;4.28;2.40;;;8.10;99.90;;;7.29;100.00;101725.25;5097512;23;20005;-74
2022/09/22 05:06:36;;;;;;;4.22;2.25;;;8.10;99.90;;;7.18;100.00;101717.31;5073355;23;20005;-74
2022/09/22 05:08:37;;;;;;;6.03;3.13;;;8.10;99.90;;;7.24;100.00;101735.25;5097950;23;20001;-74
2022/09/22 05:10:38;;;;;;;3.90;2.28;;;8.00;99.90;;;7.19;100.00;101732.13;5097723;23;20012;-74
2022/09/22 05:12:43;;;;;;;4.75;2.20;;;8.00;99.90;;;7.02;100.00;101704.47;5099264;23;20002;-74
2022/09/22 05:14:43;;;;;;;3.97;2.28;;;8.00;99.90;;;7.04;100.00;101709.63;5097905;23;20013;-74
2022/09/22 05:16:44;;;;;;;2.88;2.00;;;8.00;99.90;;;7.18;100.00;101733.06;5099224;23;20017;-74
2022/09/22 05:18:45;;;;;;;3.58;2.30;;;7.90;99.90;;;7.00;100.00;101708.16;5097630;23;20012;-74
2022/09/22 05:20:46;;;;;;;3.85;2.25;;;7.90;99.90;;;7.03;100.00;101721.06;5099374;23;20493;-74
2022/09/22 05:22:48;;;;;;;3.70;2.35;;;7.90;99.90;;;6.96;100.00;101706.72;5073210;23;20148;-74
2022/09/22 05:24:50;;;;;;;4.00;2.45;;;7.90;99.90;;;6.97;100.00;101706.59;5097203;23;20005;-74
2022/09/22 05:26:51;;;;;;;3.58;2.38;;;7.90;99.90;;;7.15;100.00;101749.88;5098810;23;20017;-74
2022/09/22 05:28:52;;;;;;;5.05;2.50;;;7.90;99.90;;;7.01;100.00;101715.09;5099098;23;20005;-74
2022/09/22 05:30:53;;;;;;;3.53;2.20;;;7.90;99.90;;;7.01;100.00;101730.81;5098057;23;20008;-74
2022/09/22 05:32:54;;;;;;;3.38;2.30;;;7.90;99.90;;;6.89;100.00;101708.09;5097358;23;20009;-74
2022/09/22 05:34:55;;;;;;;4.68;3.22;;;7.90;99.90;;;7.00;100.00;101737.00;5122004;23;20025;-74
2022/09/22 05:36:56;;;;;;;5.30;2.63;;;7.80;99.90;;;6.96;100.00;101735.56;5122447;23;20012;-74
2022/09/22 05:38:57;;;;;;;3.03;2.47;;;7.80;99.90;;;6.90;100.00;101722.88;5097590;23;20009;-74
2022/09/22 05:40:58;;;;;;;4.72;2.95;;;7.80;99.90;;;6.97;100.00;101730.19;5122153;23;20480;-74
2022/09/22 05:42:59;;;;;;;3.17;2.10;;;7.80;99.90;;;6.82;100.00;101704.22;5097269;23;20006;-74
2022/09/22 05:44:59;;;;;;;4.68;2.40;;;7.80;99.90;;;6.83;100.00;101711.97;5073090;23;20013;-74
2022/09/22 05:47:00;;;;;;;3.97;2.58;;;7.80;99.90;;;6.92;100.00;101728.84;5073268;23;20009;-74
2022/09/22 05:49:01;;;;;;;5.28;2.50;;;7.80;99.90;;;6.95;100.00;101726.00;5098545;23;20007;-74
2022/09/22 05:51:02;;;;;;;5.90;2.92;;;7.80;99.90;;;7.02;100.00;101740.34;5073191;23;20006;-74
2022/09/22 05:53:06;;;;;;;3.95;2.30;;;7.80;99.90;;;6.99;100.00;101733.53;5097386;23;20031;-74
2022/09/22 05:55:08;;;;;;;3.78;2.72;;;7.80;99.90;;;6.80;100.00;101708.72;5097298;23;20005;-74
2022/09/22 05:57:09;;;;;;;3.67;2.70;;;7.80;99.90;;;6.85;100.00;101719.72;5097511;23;20096;-74
2022/09/22 05:59:10;;;;;;;5.30;2.92;;;7.70;99.90;;;6.85;100.00;101717.94;5122091;23;20005;-74
2022/09/22 06:01:11;;;;;;;6.78;2.92;;;7.80;99.90;;;7.00;100.00;101744.88;5121455;23;20016;-74
2022/09/22 06:03:12;;;;;;;4.47;2.50;;;7.80;99.90;;;6.83;100.00;101716.38;5098537;23;20394;-74
2022/09/22 06:05:13;;;;;;;4.15;2.47;;;7.70;99.90;;;6.86;100.00;101726.66;5097588;23;20008;-74
2022/09/22 06:07:14;;;;;;;5.30;2.33;;;7.70;99.90;;;6.85;100.00;101735.47;5097398;23;20466;-74
2022/09/22 06:09:15;;;;;;;3.67;2.40;;;7.70;99.90;;;6.94;100.00;101740.91;5097480;23;20038;-74
2022/09/22 06:11:15;;;;;;;3.30;2.53;;;7.70;99.90;;;6.86;100.00;101722.25;5097228;23;20009;-74
2022/09/22 06:13:16;;;;;;;4.65;3.05;;;7.80;99.90;;;6.89;100.00;101724.66;5097273;23;20036;-74
2022/09/22 06:15:17;;;;;;;5.78;2.80;;;7.80;99.90;;;6.85;100.00;101717.09;5098745;23;20006;-74
2022/09/22 06:17:18;;;;;;;4.60;2.90;;;7.80;99.90;;;7.08;100.00;101742.53;5097302;23;20462;-74
2022/09/22 06:19:19;;;;;;;5.57;3.05;;;7.80;99.90;;;7.08;100.00;101735.50;5096614;23;20005;-74
2022/09/22 06:21:20;;;;;;;4.55;2.80;;;7.90;99.90;;;7.18;100.00;101743.56;5097279;23;20453;-74
2022/09/22 06:23:22;;;;;;;5.25;2.78;;;7.90;99.90;;;7.10;100.00;101731.00;5121766;23;20001;-74
2022/09/22 06:25:23;;;;;;;2.72;2.30;;;7.90;99.90;;;7.03;100.00;101713.19;5098821;23;20001;-74
2022/09/22 06:27:24;;;;;;;5.20;2.95;;;8.00;99.90;;;7.08;100.00;101705.81;5098648;23;20509;-73
2022/09/22 06:29:25;;;;;;;5.47;3.22;;;8.00;99.90;;;7.13;100.00;101715.06;5097166;23;20010;-74
2022/09/22 06:31:26;;;;;;;3.83;2.90;;;8.00;99.90;;;7.28;100.00;101720.13;5098859;23;20006;-74
2022/09/22 06:33:28;;;;;;;4.82;2.88;;;8.00;99.90;;;7.29;100.00;101727.06;5096737;23;20017;-73
2022/09/22 06:35:35;;;;;;;3.42;2.58;;;8.10;99.90;;;7.30;100.00;101718.22;5096681;23;20022;-74
2022/09/22 06:37:37;;;;;;;11.10;3.75;;;8.10;99.90;;;7.26;100.00;101714.97;5098527;23;20006;-74
2022/09/22 06:39:39;;;;;;;6.03;2.80;;;8.10;99.90;;;7.26;100.00;101696.59;5096907;23;20031;-74
2022/09/22 06:41:40;;;;;;;4.32;2.30;;;8.20;99.90;;;7.40;100.00;101716.63;5097153;23;20005;-74
2022/09/22 06:43:43;;;;;;;5.05;3.15;;;8.30;99.90;;;7.43;100.00;101708.53;5096838;23;20369;-74
2022/09/22 06:45:45;;;;;;;4.78;2.95;;;8.30;99.90;;;7.56;100.00;101722.41;5098523;23;20009;-74
2022/09/22 06:47:46;;;;;;;4.43;2.80;;;8.40;99.90;;;7.65;100.00;101721.72;5096866;23;20044;-74
2022/09/22 06:49:47;;;;;;;3.28;2.05;;;8.40;99.90;;;7.70;100.00;101720.47;5098598;23;20006;-74
2022/09/22 06:51:48;;;;;;;3.72;2.70;;;8.50;99.90;;;7.62;100.00;101701.78;5072522;23;20002;-74
2022/09/22 06:53:49;;;;;;;4.78;2.88;;;8.50;99.90;;;7.67;100.00;101702.31;5098656;23;20005;-74
2022/09/22 06:55:50;;;;;;;2.53;2.05;;;8.60;99.90;;;7.69;100.00;101697.78;5072948;23;20422;-74
2022/09/22 06:57:51;;;;;;;2.75;2.45;;;8.60;99.90;;;7.82;100.00;101706.38;5096638;23;20005;-74
2022/09/22 06:59:53;;;;;;;4.57;2.95;;;8.70;99.90;;;7.98;100.00;101723.63;5097001;23;20040;-74
2022/09/22 07:01:53;;;;;;;4.22;2.30;;;8.70;99.90;;;7.93;100.00;101704.75;5121694;23;20015;-74
2022/09/22 07:03:54;;;;;;;5.80;2.65;;;8.80;99.90;;;8.02;100.00;101710.16;5096426;23;20013;-74
2022/09/22 07:06:01;;;;;;;3.42;2.45;;;8.90;99.90;;;8.22;100.00;101729.66;5121859;23;20001;-74
2022/09/22 07:08:07;;;;;;;5.22;3.17;;;9.00;99.90;;;8.27;100.00;101725.75;5073194;23;20068;-74
2022/09/22 07:10:08;;;;;;;8.85;3.25;;;9.10;99.90;;;8.30;100.00;101708.94;5120735;23;20476;-74
2022/09/22 07:12:09;;;;;;;6.15;3.17;;;9.10;99.90;;;8.46;100.00;101724.34;5098136;23;20005;-74
2022/09/22 07:14:11;;;;;;;5.07;2.65;;;9.20;99.90;;;8.38;100.00;101700.44;5098081;23;20017;-74
2022/09/22 07:16:16;;;;;;;4.30;2.90;;;9.30;99.90;;;8.57;100.00;101722.56;5072230;23;20037;-74
2022/09/22 07:18:17;;;;;;;5.57;3.78;;;9.30;99.90;;;8.61;100.00;101726.63;5096942;23;20326;-74
2022/09/22 07:20:19;;;;;;;7.68;3.85;;;9.40;99.90;;;8.71;100.00;101732.03;5098421;23;20056;-74
2022/09/22 07:22:20;;;;;;;7.10;3.67;;;9.50;99.90;;;8.60;100.00;101701.28;5097759;23;20005;-74
2022/09/22 07:24:21;;;;;;;4.75;3.63;;;9.50;99.90;;;8.75;100.00;101721.13;5098210;23;20434;-74
2022/09/22 07:26:29;;;;;;;6.28;3.53;;;9.60;99.90;;;8.87;100.00;101725.44;5098302;23;20009;-74
2022/09/22 07:28:32;;;;;;;4.68;2.97;;;9.70;99.90;;;8.95;100.00;101732.72;5096893;23;20005;-74
2022/09/22 07:30:35;;;;;;;6.80;3.03;;;9.80;99.90;;;9.03;100.00;101740.00;5096572;23;20370;-74
2022/09/22 07:32:35;;;;;;;4.93;3.40;;;9.80;99.90;;;9.07;100.00;101731.75;5072038;23;20002;-74
2022/09/22 07:34:36;;;;;;;4.68;3.60;;;9.90;99.90;;;9.04;100.00;101710.09;5121193;23;20017;-74
2022/09/22 07:36:38;;;;;;;6.10;3.10;;;10.00;99.90;;;9.09;100.00;101713.19;5071889;23;20034;-74
2022/09/22 07:38:45;;;;;;;3.95;3.15;;;10.00;99.90;;;9.19;100.00;101714.16;5096650;23;20036;-74
2022/09/22 07:40:52;;;;;;;5.70;3.25;;;10.10;99.90;;;9.17;100.00;101702.91;5071788;23;20033;-75
2022/09/22 07:42:53;;;;;;;5.57;4.00;;;10.20;99.90;;;9.41;100.00;101733.34;5096230;23;20009;-74
2022/09/22 07:45:12;;;;;;;4.88;3.60;;;10.20;99.90;;;9.49;100.00;101731.88;5121168;23;20080;-74
2022/09/22 07:47:13;;;;;;;4.57;3.20;;;10.30;99.90;;;9.41;100.00;101703.53;5098178;23;20037;-74
2022/09/22 07:49:16;;;;;;;4.57;3.15;;;10.40;99.90;;;9.62;100.00;101717.56;5096521;23;20006;-74
2022/09/22 07:51:22;;;;;;;5.53;3.47;;;10.50;99.90;;;9.78;100.00;101735.59;5098028;23;20005;-74
2022/09/22 07:53:23;;;;;;;4.68;3.05;;;10.50;99.90;;;9.72;100.00;101702.69;5099628;23;20322;-75
2022/09/22 07:55:24;;;;;;;5.75;3.58;;;10.60;99.90;;;9.77;100.00;101703.16;5097672;23;20029;-74
2022/09/22 07:57:25;;;;;;;4.60;3.03;;;10.70;99.90;;;9.84;100.00;101706.94;5099649;23;20080;-75
2022/09/22 07:59:26;;;;;;;6.70;3.20;;;10.80;99.90;;;9.90;100.00;101706.44;5099660;23;20009;-74
2022/09/22 08:01:31;;;;;;;4.63;2.70;;;10.90;99.90;;;10.02;100.00;101715.97;5097854;23;20315;-74
2022/09/22 08:03:32;;;;;;;4.05;3.30;;;10.90;99.90;;;10.12;100.00;101715.19;5097348;23;20057;-74
2022/09/22 08:05:33;;;;;;;5.70;3.33;;;11.00;99.90;;;10.24;100.00;101720.31;5099609;23;20009;-74
2022/09/22 08:07:35;;;;;;;5.82;3.28;;;11.10;99.90;;;10.44;100.00;101731.78;5098159;23;20012;-74
2022/09/22 08:09:35;;;;;;;5.60;3.35;;;11.30;99.90;;;10.47;100.00;101720.97;5097749;23;20000;-74
2022/09/22 08:11:37;;;;;;;3.25;2.75;;;11.30;99.90;;;10.62;100.00;101732.84;5099715;23;20330;-74
2022/09/22 08:13:40;;;;;;;7.03;3.33;;;11.40;99.90;;;10.59;100.00;101714.63;5098039;23;20092;-74
2022/09/22 08:15:41;;;;;;;3.30;2.42;;;11.50;99.90;;;10.78;100.00;101737.63;5073624;23;20073;-74
2022/09/22 08:17:42;;;;;;;6.72;3.72;;;11.60;99.90;;;10.88;100.00;101733.22;5122242;23;20116;-74
2022/09/22 08:19:44;;;;;;;6.07;2.90;;;11.70;99.90;;;10.89;100.00;101713.78;5098151;23;20076;-74
2022/09/22 08:21:46;;;;;;;5.43;2.83;;;11.80;99.90;;;11.15;100.00;101743.16;5099482;23;20076;-75
2022/09/22 08:23:51;;;;;;;5.05;3.17;;;11.90;99.90;;;11.06;100.00;101724.53;5099573;23;20089;-75
2022/09/22 08:25:51;;;;;;;4.70;2.63;;;12.00;99.90;;;11.16;100.00;101723.72;5098345;23;20006;-75
2022/09/22 08:27:53;;;;;;;3.22;2.22;;;12.10;99.90;;;11.27;100.00;101721.78;5099805;23;20057;-75
2022/09/22 08:29:54;;;;;;;5.07;2.38;;;12.20;99.90;;;11.35;100.00;101729.84;5098048;23;20005;-75
2022/09/22 08:31:55;;;;;;;5.50;2.92;;;12.30;99.90;;;11.55;100.00;101749.22;5099797;23;20067;-75
2022/09/22 08:33:56;;;;;;;4.28;2.60;;;12.40;99.90;;;11.55;100.00;101723.63;5097525;23;20010;-75
2022/09/22 08:36:02;;;;;;;4.75;1.98;;;12.50;99.90;;;11.59;100.00;101722.38;5073233;23;20419;-76
2022/09/22 08:38:03;;;;;;;5.05;2.78;;;12.50;99.90;;;11.66;100.00;101725.28;5074233;23;20037;-75
2022/09/22 08:40:05;;;;;;;3.60;2.60;;;12.60;99.90;;;11.90;100.00;101746.88;5097745;23;20068;-76
2022/09/22 08:42:17;;;;;;;5.97;2.65;;;12.70;99.90;;;12.02;100.00;101745.78;5097558;23;20009;-76